createdAt,value
2018-10-02T00:56:16.644Z,7.60
2018-10-02T00:58:43.588Z,6.50
2018-10-02T01:01:10.556Z,6.40
2018-10-02T01:03:37.778Z,6.40
2018-10-02T01:06:04.712Z,6.40
2018-10-02T01:08:31.652Z,6.40
2018-10-02T01:10:58.620Z,6.40
2018-10-02T01:13:25.555Z,6.40
2018-10-02T01:15:52.494Z,6.40
2018-10-02T01:18:19.481Z,6.30
2018-10-02T01:20:46.407Z,6.30
2018-10-02T01:23:13.344Z,6.30
2018-10-02T01:25:40.554Z,6.30
2018-10-02T01:28:07.496Z,6.30
2018-10-02T01:30:34.428Z,6.20
2018-10-02T01:33:01.377Z,6.30
2018-10-02T01:35:28.307Z,6.30
2018-10-02T01:37:55.232Z,6.20
2018-10-02T01:40:22.476Z,6.30
2018-10-02T01:42:49.390Z,6.20
2018-10-02T01:45:16.400Z,6.20
2018-10-02T01:47:43.340Z,6.20
2018-10-02T01:50:10.256Z,6.30
2018-10-02T01:52:37.292Z,6.20
2018-10-02T01:55:04.507Z,6.20
2018-10-02T01:57:31.526Z,6.20
2018-10-02T01:59:58.470Z,6.20
2018-10-02T02:02:25.401Z,6.10
2018-10-02T02:04:52.324Z,6.10
2018-10-02T02:07:19.297Z,6.10
2018-10-02T02:09:46.284Z,6.10
2018-10-02T02:12:13.224Z,6.10
2018-10-02T02:14:40.136Z,6.10
2018-10-02T02:17:07.137Z,6.10
2018-10-02T02:19:34.054Z,6.10
2018-10-02T02:22:01.067Z,6.10
2018-10-02T02:24:28.036Z,6.10
2018-10-02T02:26:54.989Z,6.00
2018-10-02T02:29:21.938Z,5.90
2018-10-02T02:31:48.897Z,6.00
2018-10-02T02:34:15.841Z,6.00
2018-10-02T02:36:42.767Z,6.00
2018-10-02T02:39:10.064Z,6.00
2018-10-02T02:41:36.992Z,6.00
2018-10-02T02:44:03.971Z,5.90
2018-10-02T02:46:30.949Z,5.90
2018-10-02T02:49:03.812Z,5.90
2018-10-02T02:51:32.334Z,5.90
2018-10-02T02:53:59.373Z,5.90
2018-10-02T02:56:26.973Z,5.90
2018-10-02T02:58:54.083Z,5.90
2018-10-02T03:01:21.040Z,5.90
2018-10-02T03:03:48.003Z,5.90
2018-10-02T03:06:15.256Z,5.90
2018-10-02T03:08:42.244Z,5.80
2018-10-02T03:11:09.193Z,5.90
2018-10-02T03:13:36.177Z,5.90
2018-10-02T03:16:03.196Z,5.80
2018-10-02T03:18:30.128Z,5.90
2018-10-02T03:20:57.433Z,5.80
2018-10-02T03:23:24.361Z,5.90
2018-10-02T03:25:51.355Z,5.80
2018-10-02T03:28:18.685Z,5.80
2018-10-02T03:30:45.664Z,5.80
2018-10-02T03:33:12.662Z,5.80
2018-10-02T03:35:39.619Z,5.80
2018-10-02T03:38:06.580Z,5.80
2018-10-02T03:40:33.549Z,5.70
2018-10-02T03:43:00.594Z,5.70
2018-10-02T03:45:27.585Z,5.70
2018-10-02T03:47:54.528Z,5.70
2018-10-02T03:50:21.519Z,5.70
2018-10-02T03:52:48.516Z,5.70
2018-10-02T03:55:15.544Z,5.70
2018-10-02T03:57:42.492Z,5.70
2018-10-02T04:00:09.437Z,5.60
2018-10-02T04:02:36.421Z,5.70
2018-10-02T04:05:03.484Z,5.70
2018-10-02T04:07:30.490Z,5.60
2018-10-02T04:09:57.457Z,5.50
2018-10-02T04:12:24.769Z,5.60
2018-10-02T04:14:51.732Z,5.50
2018-10-02T04:17:18.673Z,5.60
2018-10-02T04:19:52.965Z,5.50
2018-10-02T04:22:19.904Z,5.50
2018-10-02T04:24:46.871Z,5.50
2018-10-02T04:27:13.892Z,5.50
2018-10-02T04:29:40.847Z,5.50
2018-10-02T04:32:07.886Z,5.40
2018-10-02T04:34:34.865Z,5.40
2018-10-02T04:37:01.809Z,5.40
2018-10-02T04:39:28.828Z,5.50
2018-10-02T04:41:56.082Z,5.50
2018-10-02T04:44:23.037Z,5.40
2018-10-02T04:46:50.059Z,5.40
2018-10-02T04:49:17.037Z,5.40
2018-10-02T04:51:44.001Z,5.40
2018-10-02T04:54:10.956Z,5.40
2018-10-02T04:56:38.268Z,5.40
2018-10-02T04:59:05.191Z,5.40
2018-10-02T05:01:32.174Z,5.40
2018-10-02T05:03:59.514Z,5.50
2018-10-02T05:06:26.454Z,5.40
2018-10-02T05:08:53.453Z,5.50
2018-10-02T05:11:21.150Z,5.50
2018-10-02T05:13:48.075Z,5.60
2018-10-02T05:16:15.090Z,5.60
2018-10-02T05:18:42.054Z,5.60
2018-10-02T05:21:09.009Z,5.50
2018-10-02T05:23:36.052Z,5.50
2018-10-02T05:26:03.022Z,5.50
2018-10-02T05:28:29.985Z,5.50
2018-10-02T05:30:56.943Z,5.60
2018-10-02T05:33:24.214Z,5.60
2018-10-02T05:35:51.239Z,5.50
2018-10-02T05:38:18.181Z,5.50
2018-10-02T05:40:45.149Z,5.50
2018-10-02T05:43:12.113Z,5.50
2018-10-02T05:45:39.095Z,5.40
2018-10-02T05:48:06.120Z,5.40
2018-10-02T05:50:33.143Z,5.50
2018-10-02T05:53:00.114Z,5.50
2018-10-02T05:55:27.182Z,5.60
2018-10-02T05:57:54.239Z,5.60
2018-10-02T06:00:21.164Z,5.70
2018-10-02T06:02:48.197Z,5.60
2018-10-02T06:05:15.182Z,5.70
2018-10-02T06:07:42.141Z,5.80
2018-10-02T06:10:09.401Z,5.80
2018-10-02T06:12:36.331Z,5.90
2018-10-02T06:15:03.432Z,6.00
2018-10-02T06:17:30.719Z,6.00
2018-10-02T06:19:57.653Z,6.10
2018-10-02T06:22:24.575Z,6.20
2018-10-02T06:24:51.608Z,6.20
2018-10-02T06:42:01.516Z,6.30
2018-10-02T06:44:29.467Z,7.40
2018-10-02T06:46:56.360Z,7.60
2018-10-02T06:49:23.329Z,7.90
2018-10-02T06:59:11.930Z,8.30
2018-10-02T07:01:38.871Z,10.40
2018-10-02T07:04:05.870Z,10.10
2018-10-02T07:06:32.832Z,9.60
2018-10-02T07:09:14.111Z,9.60
2018-10-02T07:11:41.121Z,9.50
2018-10-02T07:14:09.128Z,9.40
2018-10-02T07:16:36.263Z,9.70
2018-10-02T07:19:03.216Z,9.50
2018-10-02T07:21:30.538Z,9.80
2018-10-02T07:23:57.813Z,9.90
2018-10-02T07:26:24.849Z,9.50
2018-10-02T07:28:52.110Z,9.20
2018-10-02T07:31:19.821Z,9.00
2018-10-02T07:33:46.827Z,9.10
2018-10-02T07:36:13.797Z,9.00
2018-10-02T07:38:40.942Z,9.20
2018-10-02T07:41:07.857Z,9.00
2018-10-02T07:43:35.761Z,9.00
2018-10-02T07:46:04.413Z,9.40
2018-10-02T07:48:32.436Z,9.90
2018-10-02T09:34:32.229Z,10.60
2018-10-02T09:37:05.166Z,12.70
2018-10-02T10:53:36.837Z,13.20
2018-10-02T10:56:04.532Z,12.30
2018-10-02T10:58:31.792Z,12.20
2018-10-02T11:00:58.826Z,12.10
2018-10-02T11:03:26.097Z,12.20
2018-10-02T11:05:53.209Z,12.20
2018-10-02T11:08:20.163Z,12.10
2018-10-02T12:02:19.910Z,11.90
2018-10-02T12:04:53.766Z,10.60
2018-10-02T12:07:20.803Z,10.70
2018-10-02T12:09:47.874Z,10.60
2018-10-02T12:12:14.814Z,10.60
2018-10-02T12:14:41.851Z,10.70
2018-10-02T12:17:08.881Z,10.60
2018-10-02T12:19:35.993Z,10.80
2018-10-02T12:22:03.406Z,10.60
2018-10-02T12:24:30.367Z,10.50
2018-10-02T12:26:57.358Z,10.50
2018-10-02T12:29:24.634Z,10.40
2018-10-02T12:31:51.731Z,10.50
2018-10-02T12:34:18.820Z,10.50
2018-10-02T12:36:46.045Z,10.80
2018-10-02T12:39:13.067Z,10.90
2018-10-02T12:41:39.949Z,10.90
2018-10-02T12:44:07.328Z,10.80
2018-10-02T12:46:34.384Z,10.80
2018-10-02T12:49:01.406Z,10.70
2018-10-02T12:51:28.470Z,10.50
2018-10-02T12:53:55.478Z,10.50
2018-10-02T12:56:22.496Z,10.60
2018-10-02T12:58:49.764Z,10.60
2018-10-02T13:01:16.737Z,10.70
2018-10-02T13:03:43.717Z,10.50
2018-10-02T13:06:11.089Z,10.30
2018-10-02T13:08:38.050Z,10.20
2018-10-02T13:11:05.017Z,10.20
2018-10-02T13:13:32.094Z,10.10
2018-10-02T13:15:59.070Z,10.00
2018-10-02T13:18:26.056Z,10.00
2018-10-02T13:20:53.386Z,10.00
2018-10-02T13:23:20.467Z,10.00
2018-10-02T13:25:47.529Z,9.80
2018-10-02T13:28:14.833Z,9.70
2018-10-02T13:30:43.089Z,9.60
2018-10-02T13:33:10.103Z,9.70
2018-10-02T13:35:37.165Z,9.70
2018-10-02T13:38:04.336Z,9.60
2018-10-02T13:40:31.433Z,9.40
2018-10-02T13:42:58.658Z,9.30
2018-10-02T13:45:25.639Z,9.20
2018-10-02T13:47:52.626Z,9.20
2018-10-02T13:50:19.654Z,9.20
2018-10-02T13:52:46.605Z,9.20
2018-10-02T13:55:13.674Z,9.20
2018-10-02T13:57:41.143Z,9.30
2018-10-02T14:00:08.154Z,9.20
2018-10-02T14:02:35.771Z,9.20
2018-10-02T14:05:02.918Z,9.30
2018-10-02T14:07:29.949Z,9.20
2018-10-02T14:09:57.054Z,9.30
2018-10-02T14:12:24.345Z,9.20
2018-10-02T14:14:51.343Z,9.20
2018-10-02T14:17:18.268Z,9.10
2018-10-02T14:19:45.322Z,9.00
2018-10-02T14:22:12.269Z,9.10
2018-10-02T14:24:39.323Z,8.90
2018-10-02T14:27:06.706Z,8.90
2018-10-02T14:29:33.778Z,8.90
2018-10-02T14:32:00.779Z,8.90
2018-10-02T14:34:27.803Z,8.90
2018-10-02T14:36:54.881Z,8.90
2018-10-02T14:39:21.865Z,8.90
2018-10-02T14:41:49.258Z,8.80
2018-10-02T14:44:16.880Z,9.00
2018-10-02T14:46:44.917Z,9.00
2018-10-02T14:49:12.185Z,9.10
2018-10-02T14:51:41.234Z,9.20
2018-10-02T14:54:08.180Z,9.20
2018-10-02T14:56:35.510Z,9.10
2018-10-02T14:59:02.445Z,9.20
2018-10-02T15:01:29.376Z,9.20
2018-10-02T15:03:56.440Z,9.20
2018-10-02T15:06:23.422Z,9.10
2018-10-02T15:08:50.426Z,9.20
2018-10-02T15:11:17.810Z,9.20
2018-10-02T15:13:44.771Z,9.10
2018-10-02T15:16:11.716Z,9.10
2018-10-02T15:18:39.024Z,9.00
2018-10-02T15:21:06.017Z,9.00
2018-10-02T15:23:33.004Z,9.00
2018-10-02T15:26:00.378Z,8.60
2018-10-02T15:28:27.345Z,8.50
2018-10-02T15:30:54.268Z,8.40
2018-10-02T15:33:21.496Z,8.30
2018-10-02T15:35:48.458Z,8.30
2018-10-02T15:38:15.541Z,8.30
2018-10-02T15:40:42.797Z,8.30
2018-10-02T15:43:09.754Z,8.30
2018-10-02T15:45:36.676Z,8.30
2018-10-02T15:48:03.713Z,8.20
2018-10-02T15:50:30.657Z,8.20
2018-10-02T15:52:57.608Z,8.20
2018-10-02T15:55:24.597Z,8.20
2018-10-02T15:57:51.694Z,8.20
2018-10-02T16:00:18.646Z,8.20
2018-10-02T16:02:46.006Z,8.30
2018-10-02T16:05:12.942Z,8.30
2018-10-02T16:07:39.961Z,8.30
2018-10-02T16:10:07.219Z,8.30
2018-10-02T16:12:34.297Z,8.40
2018-10-02T16:15:01.275Z,8.50
2018-10-02T16:17:28.221Z,8.50
2018-10-02T16:19:55.228Z,8.40
2018-10-02T16:22:22.300Z,8.40
2018-10-02T16:24:49.526Z,8.40
2018-10-02T16:27:16.478Z,8.50
2018-10-02T16:29:43.690Z,8.50
2018-10-02T16:32:10.958Z,8.50
2018-10-02T16:34:48.981Z,8.60
2018-10-02T16:37:04.880Z,8.60
2018-10-02T16:39:32.193Z,8.60
2018-10-02T16:41:59.291Z,8.60
2018-10-02T16:44:26.293Z,8.70
2018-10-02T16:46:53.286Z,8.80
2018-10-02T16:49:20.234Z,8.70
2018-10-02T16:51:47.221Z,8.70
2018-10-02T16:54:14.518Z,8.60
2018-10-02T16:56:41.477Z,8.70
2018-10-02T16:59:08.434Z,8.70
2018-10-02T17:01:35.439Z,8.60
2018-10-02T17:04:02.604Z,8.70
2018-10-02T17:06:30.195Z,8.70
2018-10-02T17:08:57.669Z,8.70
2018-10-02T17:11:24.894Z,8.70
2018-10-02T17:13:52.234Z,8.80
2018-10-02T17:16:19.656Z,8.70
2018-10-02T17:18:46.694Z,8.80
2018-10-02T17:21:13.745Z,8.90
2018-10-02T17:23:40.808Z,8.80
2018-10-02T17:26:07.829Z,8.90
2018-10-02T17:28:34.869Z,8.90
2018-10-02T17:31:02.181Z,8.90
2018-10-02T17:33:29.182Z,8.90
2018-10-02T17:35:56.281Z,8.90
2018-10-02T17:38:23.603Z,8.90
2018-10-02T17:40:50.639Z,8.90
2018-10-02T17:43:17.921Z,8.90
2018-10-02T17:45:45.245Z,8.80
2018-10-02T17:48:12.320Z,8.70
2018-10-02T17:50:39.342Z,8.70
2018-10-02T17:53:06.376Z,8.60
2018-10-02T17:55:33.531Z,8.60
2018-10-02T17:59:25.623Z,8.70
2018-10-02T18:01:52.600Z,8.70
2018-10-02T18:04:19.657Z,8.70
2018-10-02T18:06:46.707Z,8.70
2018-10-02T18:09:13.783Z,8.70
2018-10-02T18:11:40.829Z,8.70
2018-10-02T18:14:08.329Z,8.70
2018-10-02T18:16:35.384Z,8.80
2018-10-02T18:19:02.379Z,8.80
2018-10-02T18:21:29.882Z,8.80
2018-10-02T18:23:56.889Z,8.80
2018-10-02T18:26:23.900Z,8.80
2018-10-02T18:28:51.244Z,8.80
2018-10-02T18:31:18.710Z,8.90
2018-10-02T18:33:45.833Z,8.90
2018-10-02T18:36:12.980Z,8.90
2018-10-02T18:38:40.030Z,9.10
2018-10-02T18:41:07.038Z,9.10
2018-10-02T18:43:34.049Z,9.10
2018-10-02T18:46:01.191Z,9.10
2018-10-02T18:48:28.163Z,9.10
2018-10-02T18:50:55.490Z,9.20
2018-10-02T18:53:22.494Z,9.20
2018-10-02T18:55:49.526Z,9.30
2018-10-02T18:58:16.640Z,9.30
2018-10-02T19:00:43.708Z,9.30
2018-10-02T19:03:10.750Z,9.40
2018-10-02T19:05:37.835Z,9.40
2018-10-02T19:08:04.937Z,9.50
2018-10-02T19:10:32.128Z,9.50
2018-10-02T19:12:59.472Z,9.60
2018-10-02T19:15:31.222Z,9.70
2018-10-02T19:17:58.405Z,9.70
2018-10-02T19:20:31.404Z,9.70
2018-10-02T19:22:58.473Z,9.80
2018-10-02T19:25:31.629Z,9.80
2018-10-02T19:27:58.694Z,9.80
2018-10-02T19:30:31.993Z,9.80
2018-10-02T19:32:59.111Z,9.90
2018-10-02T19:35:26.175Z,9.90
2018-10-02T19:37:59.021Z,9.90
2018-10-02T19:40:26.159Z,9.90
2018-10-02T19:42:53.352Z,10.00
2018-10-02T19:45:26.483Z,9.90
2018-10-02T19:47:53.577Z,10.00
2018-10-02T19:50:20.628Z,10.00
2018-10-02T19:52:47.994Z,10.10
2018-10-02T19:55:15.062Z,10.00
2018-10-02T19:57:44.137Z,10.00
2018-10-02T20:00:11.197Z,10.00
2018-10-02T20:02:38.222Z,10.10
2018-10-02T20:05:05.281Z,10.10
2018-10-02T20:07:32.387Z,10.20
2018-10-02T20:09:59.375Z,10.10
2018-10-02T20:12:26.424Z,10.20
2018-10-02T20:14:53.781Z,10.20
2018-10-02T20:17:20.836Z,10.30
2018-10-02T20:19:49.081Z,10.30
2018-10-02T20:22:16.205Z,10.20
2018-10-02T20:24:43.341Z,10.20
2018-10-02T20:27:10.322Z,10.30
2018-10-02T20:29:37.406Z,10.20
2018-10-02T20:32:04.434Z,10.20
2018-10-02T20:34:31.480Z,10.30
2018-10-02T20:36:58.578Z,10.30
2018-10-02T20:39:25.557Z,10.20
2018-10-02T20:41:52.631Z,10.30
2018-10-02T20:44:20.122Z,10.30
2018-10-02T20:46:47.182Z,10.30
2018-10-02T20:49:14.223Z,10.30
2018-10-02T20:51:41.205Z,10.30
2018-10-02T20:54:08.262Z,10.50
2018-10-02T20:56:35.305Z,10.40
2018-10-02T20:59:02.710Z,10.50
2018-10-02T21:01:29.766Z,10.50
2018-10-02T21:03:56.794Z,10.50
2018-10-02T21:06:24.251Z,10.50
2018-10-02T21:08:51.265Z,10.50
2018-10-02T21:11:18.367Z,10.50
2018-10-02T21:13:45.449Z,10.50
2018-10-02T21:16:12.544Z,10.50
2018-10-02T21:18:39.560Z,10.50
2018-10-02T21:21:07.221Z,10.50
2018-10-02T21:23:34.340Z,10.50
2018-10-02T21:26:01.337Z,10.40
2018-10-02T21:28:28.866Z,10.30
2018-10-02T21:30:55.915Z,10.30
2018-10-02T21:33:23.234Z,10.30
2018-10-02T21:35:50.509Z,10.20
2018-10-02T21:38:17.832Z,10.20
2018-10-02T21:40:44.832Z,10.20
2018-10-02T21:43:11.950Z,10.10
2018-10-02T21:45:39.004Z,10.20
2018-10-02T21:48:06.106Z,10.30
2018-10-02T21:50:33.603Z,10.30
2018-10-02T21:53:00.694Z,10.20
2018-10-02T21:55:27.760Z,10.20
2018-10-02T21:57:55.121Z,10.20
2018-10-02T22:00:22.177Z,10.30
2018-10-02T22:02:49.231Z,10.30
2018-10-02T22:05:16.589Z,10.30
2018-10-02T22:07:43.611Z,10.40
2018-10-02T22:10:10.639Z,10.40
2018-10-02T22:12:37.725Z,10.40
2018-10-02T22:15:04.756Z,10.40
2018-10-02T22:17:31.810Z,10.40
2018-10-02T22:19:59.161Z,10.40
2018-10-02T22:22:26.203Z,10.40
2018-10-02T22:24:53.223Z,10.50
2018-10-02T22:27:21.365Z,10.50
2018-10-02T22:29:48.356Z,10.50
2018-10-02T22:32:15.408Z,10.50
2018-10-02T22:34:42.822Z,10.50
2018-10-02T22:37:09.814Z,10.50
2018-10-02T22:39:36.867Z,10.50
2018-10-02T22:42:03.902Z,10.50
2018-10-02T22:44:30.961Z,10.40
2018-10-02T22:46:57.948Z,10.40
2018-10-02T22:49:25.310Z,10.50
2018-10-02T22:51:52.422Z,10.50
2018-10-02T22:54:19.413Z,10.50
2018-10-02T22:56:46.961Z,10.50
2018-10-02T22:59:14.041Z,10.50
2018-10-02T23:01:40.973Z,10.50
2018-10-02T23:04:08.681Z,10.50
2018-10-02T23:06:35.682Z,10.50
2018-10-02T23:09:04.580Z,10.60
2018-10-02T23:11:31.537Z,10.60
2018-10-02T23:13:58.648Z,10.60
2018-10-02T23:16:25.672Z,10.50
2018-10-02T23:18:53.134Z,10.60
2018-10-02T23:21:20.169Z,10.60
2018-10-02T23:23:47.198Z,10.70
2018-10-02T23:26:14.581Z,10.70
2018-10-02T23:28:41.622Z,10.70
2018-10-02T23:31:08.650Z,10.80
2018-10-02T23:33:35.759Z,10.80
2018-10-02T23:36:02.981Z,10.80
2018-10-02T23:38:29.995Z,10.80
2018-10-02T23:40:57.100Z,10.80
2018-10-02T23:43:24.145Z,10.80
2018-10-02T23:45:51.108Z,10.90
2018-10-02T23:48:18.525Z,10.90
2018-10-02T23:50:45.552Z,10.90
2018-10-02T23:53:12.645Z,11.00
2018-10-02T23:55:40.069Z,10.90
2018-10-02T23:58:07.073Z,10.90
